A- A+ FrançaisEnglishEspañol中国

Services sur Internet Soldes sur Internet Des idées de cadeaux Météo Météo aéro

La météo à : Autours de vous Tarbes-Lourdes-PyrénéesPontoise-Cormeilles-En-VexinChateauroux-Deols Paris-Orly

manche à air

La météo aéronautique pour les pilotes, la préparation du vol avec les METAR (METeorological Aerodrome Report, message d'observation des conditions météorologiques pour l'aviation) et Les TAF (Terminal Aerodrome Forecast : message de prévision à court terme des conditions météorologiques pour l'aviation). Et les autres ressources comme les VAC (Visual Approch Chart) et les NOTAM (Notice To Airman) pour préprer les vols.

Aéroport Estevan (Canada) / OACI CYEN/ IATA YEN

L'altitude de l'aéroport Estevan est de 581 m = 1906 ft. Il est situé à proximité de Estevan (Canada). La météo générale à 5 jours est disponible pour Estevan situé à 8.7 km.

METAR de l'aéroport Estevan - CYEN

CYEN 042200Z AUTO 31017G23KT 9SM OVC036 M06/M13 A3018 RMK SLP260

Décodage du METAR de l'aéroport Estevan (CA)

METAR émis par CYEN le lundi 4 novembre 2019 à 22:00 heure TU. C'est un METAR généré automatiquement. Attention ce METAR est obsolète car il a été émis il y a 4 heure et 11 minutes.

La visibilité est de 14.5 km = 9 sm.

La température est de -6°C = 21 °F et le point rosée est de -13°C = 9 °F . Ce qui correspond à 58% d'humidité relative.

Le QNH est de 1022 hPa = 30.18 inHg

Vent de 17 kt = 31 km/h avec des rafales à 23 kt = 43 km/h, orienté à 310°.

Nuages : Couverture nuageuse soudée à 3600 ft = 1100 mètres.

RMK SLP260

TAF de l'aéroport Estevan - CYEN

CYEN 041929Z 0419/0424 32012G22KT P6SM BKN040 TEMPO 0419/0424 6SM -SN RMK FCST BASED ON AUTO OBS. NXT FCST WILL BE ISSUED AT 051145Z

CYEN 041929Z 0419/0424 32012G22KT P6SM couverture nuageuse fragmentée à 040 temporairement 0419/0424 6SM faible SN remarques trombe ST BASED ON AUTO OBS. NXT trombe ST WILL BE ISSUED AT 051145Z

Aéroport à proximité de Estevan

Météo générale à 5 jours à Estevan (8.7 km)Aéroport Mohall Mun (115 km)Aéroport Sher Wood (124 km)Aéroport Sloulin Intl (125 km)Aéroport Minot AFB (147 km)Aéroport Minot Intl (163 km)Aéroport Regina (183 km)

Vue aérienne de l'aéroport Estevan

NOTAM de l'aéroport Estevan

Les NOTAM sont fournis sans aucune garantie de leur actualité. Le pilote est le seul responsable de la vérification de sa validité avant de l'utiliser opérationnellement pour préparer un vol ou l'utiliser lors de sa navigation.

NOTAM Aerodrome (du vendredi 18 octobre 2019 à 14:21 au mercredi 20 novembre 2019 à 03:00)

J0436/19 NOTAMN
Q) CZWG/QFAHX/IV/NBO/A/000/999/4913N10258W005
A) CYEN B) 1910181421 C) 1911200300
E) MIGRATORY BIRD ACT
CREATED: 18 Oct 2019 14:18:00
SOURCE: CYHQYNYX

Sources des données